Monday, August 20, 2018, 8:42 AM EDT
Back to Local

KCON, Concord, Concord Municipal Airport

Location: Concord, NH, United States Lat: 43.195
Local Time: 8:42 AM EDT (12:42 GMT) Lon: -71.501
Time Zone: US/Eastern Elev: 344 ft

Show me the last for .
Show Decoded

2018-08-20 07:51 METAR KCON 201151Z AUTO 36003KT 10SM FEW034 OVC055 17/16 A3020 RMK AO2 SLP226
                 T01670156 10167 20156 51014 =
2018-08-20 06:51 METAR KCON 201051Z AUTO 35004KT 10SM FEW027 OVC050 17/15 A3019 RMK AO2 SLP224
                 T01670150 =
2018-08-20 05:51 METAR KCON 200951Z AUTO 32006KT 10SM FEW038 OVC055 16/15 A3018 RMK AO2 SLP220
                 T01610150 =
2018-08-20 05:33 METAR KCON 200933Z AUTO 33005KT 10SM SCT013 OVC055 16/15 A3018 RMK AO2 T01610150
                 =
2018-08-20 04:51 METAR KCON 200851Z AUTO 33003KT 10SM OVC013 16/15 A3016 RMK AO2 SLP211 T01610150
                 55000 =
2018-08-20 04:36 METAR KCON 200836Z AUTO 00000KT 10SM BKN013 16/14 A3016 RMK AO2 T01610144 =
2018-08-20 03:51 METAR KCON 200751Z AUTO 33005KT 10SM FEW055 16/14 A3015 RMK AO2 SLP210 T01560144
                 =
2018-08-20 02:51 METAR KCON 200651Z AUTO 02004KT 10SM BKN060 16/14 A3015 RMK AO2 SLP207 T01560144
                 =
2018-08-20 01:51 METAR KCON 200551Z AUTO 02003KT 10SM BKN060 16/14 A3016 RMK AO2 SLP211 T01560144
                 10189 20156 53004 =
2018-08-20 00:51 METAR KCON 200451Z AUTO 00000KT 10SM OVC060 16/15 A3015 RMK AO2 SLP210 T01610150
                 402610144 =
2018-08-19 23:51 METAR KCON 200351Z AUTO 00000KT 10SM OVC055 16/15 A3015 RMK AO2 SLP208 T01610150
                 =
2018-08-19 22:51 METAR KCON 200251Z AUTO 02004KT 10SM BKN055 17/15 A3015 RMK AO2 SLP207 T01670150
                 51007 =
2018-08-19 21:51 METAR KCON 200151Z AUTO 00000KT 10SM BKN055 17/16 A3014 RMK AO2 SLP207 T01670156
                 =
2018-08-19 20:51 METAR KCON 200051Z AUTO 00000KT 10SM CLR 17/15 A3014 RMK AO2 SLP206 T01670150 =
2018-08-19 19:51 METAR KCON 192351Z AUTO 00000KT 10SM CLR 18/15 A3013 RMK AO2 SLP201 T01830150
                 10261 20183 51025 =
2018-08-19 18:51 METAR KCON 192251Z AUTO 12003KT 10SM CLR 20/16 A3010 RMK AO2 SLP194 T02000156 =
2018-08-19 17:51 METAR KCON 192151Z AUTO VRB06KT 10SM CLR 22/16 A3008 RMK AO2 SLP185 T02220161 =
2018-08-19 16:51 METAR KCON 192051Z AUTO 12005KT 10SM SCT055 25/14 A3005 RMK AO2 SLP175 T02500139
                 55001 =
2018-08-19 15:51 METAR KCON 191951Z AUTO 07007KT 10SM CLR 26/14 A3004 RMK AO2 SLP173 T02560139 =
2018-08-19 14:51 METAR KCON 191851Z AUTO 06006KT 10SM SCT055 26/13 A3006 RMK AO2 SLP176 T02560133
                 =
2018-08-19 13:51 METAR KCON 191751Z AUTO VRB06KT 10SM SCT050 25/13 A3005 RMK AO2 SLP176 T02500133
                 10261 20183 58003 =
2018-08-19 12:51 METAR KCON 191651Z AUTO 10008KT 10SM SCT050 26/13 A3006 RMK AO2 SLP177 T02560133
                 =
2018-08-19 11:51 METAR KCON 191551Z AUTO 06008KT 10SM CLR 24/13 A3006 RMK AO2 SLP179 T02440128 =
2018-08-19 10:51 METAR KCON 191451Z AUTO 07011KT 10SM CLR 24/12 A3006 RMK AO2 SLP179 T02390122
                 52010 =
2018-08-19 09:51 METAR KCON 191351Z AUTO 07007KT 10SM CLR 23/13 A3006 RMK AO2 SLP177 T02280133 =
2018-08-19 08:51 METAR KCON 191251Z AUTO 06004KT 10SM CLR 21/16 A3004 RMK AO2 SLP172 T02110156 =

Support USWX by starting your Amazon purchase here.